Time;durP1;ratioP1;P1;durP2;ratioP2;P2;SDS_P1;SDS_P2;PMS_P1;PMS_P2;Temp;Humidity;BMP_temperature;BMP_pressure;BME280_temperature;BME280_humidity;BME280_pressure;Samples;Min_cycle;Max_cycle;Signal;HPM_P1;HPM_P2
2022/07/07 00:03:05;;;;;;;4.10;3.70;;;;;;;;;;10255234;28;20086;-66
2022/07/07 00:08:04;;;;;;;7.00;4.03;;;;;;;;;;10253466;28;20416;-66
2022/07/07 00:13:02;;;;;;;4.18;3.88;;;;;;;;;;10254347;28;20073;-65
2022/07/07 00:18:00;;;;;;;5.22;4.45;;;;;;;;;;10254023;28;20514;-65
2022/07/07 00:23:00;;;;;;;4.30;3.90;;;;;;;;;;10253640;28;20510;-64
2022/07/07 00:27:58;;;;;;;4.00;3.70;;;;;;;;;;10253815;28;20194;-64
2022/07/07 00:32:57;;;;;;;5.88;4.18;;;;;;;;;;10253108;28;20465;-66
2022/07/07 00:37:55;;;;;;;4.10;3.80;;;;;;;;;;10253098;28;20076;-65
2022/07/07 00:42:54;;;;;;;6.97;4.20;;;;;;;;;;10253165;28;20095;-65
2022/07/07 00:47:53;;;;;;;3.92;3.63;;;;;;;;;;10252923;28;20434;-65
2022/07/07 00:52:51;;;;;;;4.30;3.90;;;;;;;;;;10252065;28;20490;-65
2022/07/07 00:57:50;;;;;;;6.82;3.70;;;;;;;;;;10252133;28;20547;-63
2022/07/07 01:02:49;;;;;;;3.67;3.38;;;;;;;;;;10248031;28;20104;-65
2022/07/07 01:07:49;;;;;;;6.75;3.92;;;;;;;;;;10254648;28;20081;-64
2022/07/07 01:12:47;;;;;;;4.80;3.80;;;;;;;;;;10238983;28;20049;-65
2022/07/07 01:17:45;;;;;;;3.90;3.60;;;;;;;;;;10238994;28;20073;-65
2022/07/07 01:22:48;;;;;;;3.80;3.40;;;;;;;;;;10239002;28;20500;-65
2022/07/07 01:27:47;;;;;;;3.85;3.50;;;;;;;;;;10246376;28;20080;-64
2022/07/07 01:32:46;;;;;;;4.50;3.90;;;;;;;;;;10244382;28;20088;-65
2022/07/07 01:37:44;;;;;;;4.38;3.75;;;;;;;;;;10238787;28;20104;-65
2022/07/07 01:42:44;;;;;;;4.30;3.65;;;;;;;;;;10244414;28;20073;-65
2022/07/07 01:47:42;;;;;;;3.92;3.53;;;;;;;;;;10253472;28;20108;-65
2022/07/07 01:52:40;;;;;;;4.25;3.85;;;;;;;;;;10242804;28;20077;-65
2022/07/07 01:57:39;;;;;;;3.92;3.63;;;;;;;;;;10240966;28;20072;-64
2022/07/07 02:02:38;;;;;;;4.05;3.40;;;;;;;;;;10239710;28;20092;-65
2022/07/07 02:07:37;;;;;;;4.22;3.90;;;;;;;;;;10250379;28;20079;-64
2022/07/07 02:12:35;;;;;;;17.73;15.93;;;;;;;;;;10249778;28;20068;-67
2022/07/07 02:17:34;;;;;;;4.72;4.20;;;;;;;;;;10242032;28;20076;-69
2022/07/07 02:22:35;;;;;;;6.28;4.40;;;;;;;;;;10236576;28;20088;-67
2022/07/07 02:27:33;;;;;;;4.25;3.95;;;;;;;;;;10232971;28;20551;-69
2022/07/07 02:32:32;;;;;;;5.07;4.68;;;;;;;;;;10234593;28;20045;-68
2022/07/07 02:37:31;;;;;;;5.28;4.82;;;;;;;;;;10244207;28;20068;-68
2022/07/07 02:42:30;;;;;;;4.95;4.55;;;;;;;;;;10248514;28;20068;-68
2022/07/07 02:47:28;;;;;;;4.53;4.13;;;;;;;;;;10248021;28;20069;-68
2022/07/07 02:52:27;;;;;;;5.10;4.10;;;;;;;;;;10241752;28;20091;-68
2022/07/07 02:57:25;;;;;;;8.07;5.70;;;;;;;;;;10244622;28;20399;-68
2022/07/07 03:02:26;;;;;;;7.30;6.15;;;;;;;;;;10245795;28;20510;-68
2022/07/07 03:07:25;;;;;;;6.22;5.05;;;;;;;;;;10247219;28;20073;-68
2022/07/07 03:12:23;;;;;;;6.05;4.97;;;;;;;;;;10245945;28;20061;-68
2022/07/07 03:17:22;;;;;;;5.55;4.82;;;;;;;;;;10246320;28;20080;-69
2022/07/07 03:22:22;;;;;;;5.88;5.35;;;;;;;;;;10246431;28;20077;-69
2022/07/07 03:27:21;;;;;;;5.10;4.70;;;;;;;;;;10237617;28;20095;-68
2022/07/07 03:32:19;;;;;;;5.43;4.50;;;;;;;;;;10245448;28;20053;-68
2022/07/07 03:37:21;;;;;;;6.65;4.68;;;;;;;;;;10245538;28;20041;-68
2022/07/07 03:42:20;;;;;;;4.40;4.00;;;;;;;;;;10245206;28;20076;-68
2022/07/07 03:47:19;;;;;;;4.93;4.53;;;;;;;;;;10246368;28;20048;-68
2022/07/07 03:52:19;;;;;;;6.13;4.63;;;;;;;;;;10244888;28;20068;-68
2022/07/07 03:57:19;;;;;;;4.30;3.90;;;;;;;;;;10246567;28;20046;-68
2022/07/07 04:02:18;;;;;;;8.85;3.67;;;;;;;;;;10243925;28;20069;-68
2022/07/07 04:07:17;;;;;;;5.75;5.18;;;;;;;;;;10238239;28;20045;-69
2022/07/07 04:12:16;;;;;;;5.50;4.97;;;;;;;;;;10244822;28;20077;-68
2022/07/07 04:17:16;;;;;;;3.78;3.47;;;;;;;;;;10245231;28;20052;-68
2022/07/07 04:22:15;;;;;;;5.07;3.88;;;;;;;;;;10245544;28;20085;-68
2022/07/07 04:27:14;;;;;;;6.50;5.88;;;;;;;;;;10245930;28;20073;-69
2022/07/07 04:32:13;;;;;;;11.73;8.57;;;;;;;;;;10244445;28;20084;-69
2022/07/07 04:37:13;;;;;;;3.53;2.63;;;;;;;;;;10243730;28;20079;-69
2022/07/07 04:42:12;;;;;;;8.52;2.80;;;;;;;;;;10245450;28;20084;-68
2022/07/07 04:47:10;;;;;;;4.40;2.97;;;;;;;;;;10250997;28;20068;-69
2022/07/07 04:52:09;;;;;;;4.47;2.10;;;;;;;;;;10243418;28;20083;-69
2022/07/07 04:57:09;;;;;;;7.30;3.58;;;;;;;;;;10251953;28;20057;-69
2022/07/07 05:02:07;;;;;;;2.13;1.90;;;;;;;;;;10251592;28;20080;-68
2022/07/07 05:07:06;;;;;;;3.47;2.30;;;;;;;;;;10243722;28;20502;-68
2022/07/07 05:12:05;;;;;;;8.23;2.20;;;;;;;;;;10242332;28;20060;-68
2022/07/07 05:17:05;;;;;;;5.45;2.28;;;;;;;;;;10235825;28;20096;-68
2022/07/07 05:22:03;;;;;;;3.55;1.98;;;;;;;;;;10244094;28;20121;-69
2022/07/07 05:27:02;;;;;;;6.18;1.77;;;;;;;;;;10239615;28;20077;-68
2022/07/07 05:32:00;;;;;;;2.30;2.10;;;;;;;;;;10237091;28;20067;-69
2022/07/07 05:37:00;;;;;;;10.10;1.83;;;;;;;;;;10251163;28;20079;-68
2022/07/07 05:41:58;;;;;;;3.20;2.20;;;;;;;;;;10249869;28;20080;-69
2022/07/07 05:46:56;;;;;;;6.32;3.50;;;;;;;;;;10250796;28;20071;-68
2022/07/07 05:51:55;;;;;;;2.90;2.38;;;;;;;;;;10250034;28;20148;-68
2022/07/07 05:56:54;;;;;;;3.05;1.98;;;;;;;;;;10245286;28;20049;-68
2022/07/07 06:01:53;;;;;;;5.53;2.58;;;;;;;;;;10236691;28;20473;-68
2022/07/07 06:06:51;;;;;;;4.50;3.17;;;;;;;;;;10237118;28;20072;-68
2022/07/07 06:11:50;;;;;;;6.95;2.00;;;;;;;;;;10240180;28;20310;-68
2022/07/07 06:16:49;;;;;;;2.50;2.10;;;;;;;;;;10249657;28;20073;-69
2022/07/07 06:21:48;;;;;;;15.85;3.03;;;;;;;;;;10250896;28;20438;-69
2022/07/07 06:26:46;;;;;;;3.72;2.10;;;;;;;;;;10248752;28;20072;-68
2022/07/07 06:31:44;;;;;;;7.28;3.45;;;;;;;;;;10245662;28;20095;-68
2022/07/07 06:36:44;;;;;;;17.50;5.80;;;;;;;;;;10235894;28;20041;-69
2022/07/07 06:41:42;;;;;;;8.25;4.53;;;;;;;;;;10235714;28;20069;-68
2022/07/07 06:46:41;;;;;;;18.58;14.55;;;;;;;;;;10230973;28;20068;-68
2022/07/07 06:51:39;;;;;;;11.80;8.10;;;;;;;;;;10248889;28;20080;-68
2022/07/07 06:56:39;;;;;;;12.43;8.95;;;;;;;;;;10248300;28;20040;-68
2022/07/07 07:01:37;;;;;;;10.15;8.18;;;;;;;;;;10247041;28;20080;-68
2022/07/07 07:06:36;;;;;;;4.38;2.85;;;;;;;;;;10244554;28;20069;-67
2022/07/07 07:11:34;;;;;;;4.75;3.30;;;;;;;;;;10247055;28;20079;-66
2022/07/07 07:16:34;;;;;;;5.97;4.05;;;;;;;;;;10246805;28;20049;-67
2022/07/07 07:21:32;;;;;;;6.78;3.08;;;;;;;;;;10245514;28;20072;-67
2022/07/07 07:26:31;;;;;;;5.32;3.20;;;;;;;;;;10242132;28;20080;-69
2022/07/07 07:31:30;;;;;;;3.70;3.28;;;;;;;;;;10242144;28;20562;-68
2022/07/07 07:36:30;;;;;;;5.63;4.10;;;;;;;;;;10243038;28;20526;-68
2022/07/07 07:41:28;;;;;;;5.97;4.03;;;;;;;;;;10243197;28;20081;-67
2022/07/07 07:46:26;;;;;;;6.60;3.90;;;;;;;;;;10243759;28;20088;-67
2022/07/07 07:51:25;;;;;;;5.88;3.70;;;;;;;;;;10243681;28;20601;-67
2022/07/07 07:56:25;;;;;;;6.38;3.58;;;;;;;;;;10245122;28;20127;-67
2022/07/07 08:01:23;;;;;;;5.35;4.30;;;;;;;;;;10243378;28;20080;-67
2022/07/07 08:06:21;;;;;;;8.35;4.07;;;;;;;;;;10245294;28;20503;-68
2022/07/07 08:11:20;;;;;;;7.65;4.38;;;;;;;;;;10239417;28;20041;-68
2022/07/07 08:16:19;;;;;;;7.65;3.45;;;;;;;;;;10245522;28;20045;-69
2022/07/07 08:21:20;;;;;;;6.10;4.35;;;;;;;;;;10242478;28;20068;-68
2022/07/07 08:26:18;;;;;;;20.00;17.02;;;;;;;;;;10252596;28;20064;-68
2022/07/07 08:31:17;;;;;;;16.35;14.68;;;;;;;;;;10252707;28;20042;-68
2022/07/07 08:36:17;;;;;;;5.88;4.40;;;;;;;;;;10239853;28;20092;-67
2022/07/07 08:41:16;;;;;;;6.63;4.22;;;;;;;;;;10249092;28;20096;-68
2022/07/07 08:46:15;;;;;;;5.43;3.83;;;;;;;;;;10248673;28;20046;-67
2022/07/07 08:51:13;;;;;;;6.50;3.33;;;;;;;;;;10242275;28;20083;-66
2022/07/07 08:56:13;;;;;;;13.80;3.78;;;;;;;;;;10250570;28;20069;-65
2022/07/07 09:01:12;;;;;;;3.83;2.97;;;;;;;;;;10252056;28;20474;-68
2022/07/07 09:06:10;;;;;;;6.47;3.22;;;;;;;;;;10249765;28;20081;-67
2022/07/07 09:11:09;;;;;;;4.40;3.22;;;;;;;;;;10239381;28;20041;-67
2022/07/07 09:16:15;;;;;;;10.75;3.53;;;;;;;;;;10235422;28;20080;-67
2022/07/07 09:21:26;;;;;;;8.80;2.30;;;;;;;;;;10237378;28;20073;-66
2022/07/07 09:26:37;;;;;;;2.75;1.52;;;;;;;;;;10252041;28;20084;-68
2022/07/07 09:31:53;;;;;;;2.05;1.83;;;;;;;;;;10238910;28;20073;-69
2022/07/07 09:42:21;;;;;;;10.90;2.47;;;;;;;;;;10241195;28;20065;-68
2022/07/07 09:47:21;;;;;;;2.83;2.38;;;;;;;;;;10244422;28;20084;-67
2022/07/07 09:52:20;;;;;;;4.57;1.90;;;;;;;;;;10250692;28;20073;-68
2022/07/07 09:57:19;;;;;;;3.95;2.40;;;;;;;;;;10244465;28;20117;-70
2022/07/07 10:02:22;;;;;;;8.70;3.10;;;;;;;;;;10237455;28;20502;-68
2022/07/07 10:07:21;;;;;;;7.15;2.72;;;;;;;;;;10237089;28;20042;-68
2022/07/07 10:12:23;;;;;;;8.75;1.88;;;;;;;;;;10241916;28;20068;-68
2022/07/07 10:17:23;;;;;;;8.85;7.85;;;;;;;;;;10249563;28;20054;-68
2022/07/07 10:22:26;;;;;;;5.00;2.10;;;;;;;;;;10247164;28;20081;-68
2022/07/07 10:27:25;;;;;;;6.03;2.30;;;;;;;;;;10238962;28;20060;-68
2022/07/07 10:32:32;;;;;;;7.95;2.50;;;;;;;;;;10242931;28;20052;-69
2022/07/07 10:37:40;;;;;;;4.07;1.92;;;;;;;;;;10240401;28;20044;-68
2022/07/07 10:42:50;;;;;;;3.92;1.20;;;;;;;;;;10229413;28;20073;-69
2022/07/07 10:47:50;;;;;;;3.08;1.52;;;;;;;;;;10235864;28;20041;-69
2022/07/07 10:52:48;;;;;;;3.65;1.92;;;;;;;;;;10239239;28;20065;-69
2022/07/07 10:58:07;;;;;;;2.30;1.77;;;;;;;;;;10245521;28;20085;-68
2022/07/07 11:03:13;;;;;;;3.78;1.67;;;;;;;;;;10246927;28;20049;-68
2022/07/07 11:08:15;;;;;;;3.53;1.83;;;;;;;;;;10243669;28;20045;-67
2022/07/07 11:13:21;;;;;;;4.38;2.38;;;;;;;;;;10247483;28;20077;-68
2022/07/07 11:18:20;;;;;;;2.95;1.73;;;;;;;;;;10247749;28;20084;-69
2022/07/07 11:23:19;;;;;;;2.53;1.90;;;;;;;;;;10235504;28;20096;-69
2022/07/07 11:28:17;;;;;;;1.67;1.58;;;;;;;;;;10234602;28;20041;-69
2022/07/07 11:33:15;;;;;;;5.75;1.50;;;;;;;;;;10244814;28;20057;-69
2022/07/07 11:38:15;;;;;;;3.00;1.90;;;;;;;;;;10247024;28;20452;-69
2022/07/07 11:43:20;;;;;;;3.92;1.67;;;;;;;;;;10246508;28;20080;-68
2022/07/07 11:48:19;;;;;;;2.67;1.90;;;;;;;;;;10246663;28;20077;-69
2022/07/07 11:53:22;;;;;;;2.10;1.95;;;;;;;;;;10242630;28;20088;-68
2022/07/07 11:58:20;;;;;;;1.35;1.25;;;;;;;;;;10255102;28;20414;-68
2022/07/07 12:03:19;;;;;;;2.05;1.48;;;;;;;;;;10247910;28;20069;-68
2022/07/07 12:08:19;;;;;;;7.00;1.40;;;;;;;;;;10257076;28;20045;-68
2022/07/07 12:13:17;;;;;;;3.28;1.95;;;;;;;;;;10245316;28;20391;-68
2022/07/07 12:18:20;;;;;;;5.07;1.42;;;;;;;;;;10241785;28;20077;-68
2022/07/07 12:23:20;;;;;;;4.45;1.50;;;;;;;;;;10240969;28;20092;-68
2022/07/07 12:28:18;;;;;;;3.63;2.05;;;;;;;;;;10247545;28;20073;-68
2022/07/07 12:33:24;;;;;;;4.03;1.58;;;;;;;;;;10256748;28;20434;-68
2022/07/07 12:38:36;;;;;;;1.95;1.85;;;;;;;;;;10254145;28;20061;-68
2022/07/07 12:43:36;;;;;;;4.20;3.03;;;;;;;;;;10252090;28;20091;-68
2022/07/07 12:48:49;;;;;;;1.65;1.42;;;;;;;;;;10255311;28;20466;-69
2022/07/07 12:53:48;;;;;;;4.63;1.80;;;;;;;;;;10253443;28;20054;-67
2022/07/07 12:58:48;;;;;;;3.83;1.92;;;;;;;;;;10253200;28;20119;-69
2022/07/07 13:03:48;;;;;;;2.42;1.70;;;;;;;;;;10252615;28;20076;-68
2022/07/07 13:08:48;;;;;;;6.53;2.70;;;;;;;;;;10252452;28;20049;-68
2022/07/07 13:13:47;;;;;;;6.82;2.10;;;;;;;;;;10252484;28;20072;-69
2022/07/07 13:19:06;;;;;;;3.10;2.40;;;;;;;;;;10252392;28;20080;-69
2022/07/07 13:24:04;;;;;;;6.30;2.22;;;;;;;;;;10251778;28;20089;-69
2022/07/07 13:29:04;;;;;;;6.40;2.53;;;;;;;;;;10251006;28;20476;-68
2022/07/07 13:34:02;;;;;;;6.75;2.80;;;;;;;;;;10253285;28;20065;-68
2022/07/07 13:39:01;;;;;;;2.97;2.45;;;;;;;;;;10252448;28;20089;-68
2022/07/07 13:43:59;;;;;;;4.25;2.67;;;;;;;;;;10254830;28;20080;-67
2022/07/07 13:48:59;;;;;;;2.10;1.90;;;;;;;;;;10250259;28;20087;-68
2022/07/07 13:53:57;;;;;;;4.45;3.28;;;;;;;;;;10251795;28;20063;-69
2022/07/07 13:59:15;;;;;;;7.85;3.90;;;;;;;;;;10250522;28;20452;-67
2022/07/07 14:04:15;;;;;;;3.20;2.17;;;;;;;;;;10244010;28;20538;-67
2022/07/07 14:09:14;;;;;;;4.05;2.10;;;;;;;;;;10247693;28;20072;-69
2022/07/07 14:14:12;;;;;;;3.92;3.10;;;;;;;;;;10252168;28;20075;-69
2022/07/07 14:19:10;;;;;;;1.92;1.83;;;;;;;;;;10250624;28;20069;-69
2022/07/07 14:24:10;;;;;;;7.07;3.67;;;;;;;;;;10236241;28;20089;-67
2022/07/07 14:29:09;;;;;;;2.58;2.20;;;;;;;;;;10249164;28;20071;-66
2022/07/07 14:34:07;;;;;;;7.95;6.80;;;;;;;;;;10250062;28;20042;-67
2022/07/07 14:39:05;;;;;;;2.97;2.40;;;;;;;;;;10248335;28;20472;-68
2022/07/07 14:44:05;;;;;;;3.47;2.50;;;;;;;;;;10249013;28;20077;-68
2022/07/07 14:49:04;;;;;;;2.90;1.98;;;;;;;;;;10249134;28;20061;-69
2022/07/07 14:54:02;;;;;;;1.90;1.75;;;;;;;;;;10249269;28;20077;-68
2022/07/07 14:59:00;;;;;;;3.95;2.15;;;;;;;;;;10248842;28;20046;-67
2022/07/07 15:04:00;;;;;;;1.77;1.65;;;;;;;;;;10248379;28;20533;-68
2022/07/07 15:08:58;;;;;;;2.70;2.45;;;;;;;;;;10247936;28;20072;-69
2022/07/07 15:13:57;;;;;;;8.18;3.17;;;;;;;;;;10248205;28;20073;-69
2022/07/07 15:18:55;;;;;;;2.90;2.60;;;;;;;;;;10247998;28;20072;-68
2022/07/07 15:24:02;;;;;;;3.20;2.83;;;;;;;;;;10246968;28;20092;-68
2022/07/07 15:29:01;;;;;;;4.63;2.80;;;;;;;;;;10246690;28;20088;-68
2022/07/07 15:33:59;;;;;;;4.03;3.40;;;;;;;;;;10247269;28;20053;-69
2022/07/07 15:38:57;;;;;;;5.63;3.75;;;;;;;;;;10245836;28;20076;-68
2022/07/07 15:43:57;;;;;;;5.03;2.97;;;;;;;;;;10235552;28;20927;-68
2022/07/07 15:48:56;;;;;;;4.95;3.95;;;;;;;;;;10243457;28;20076;-68
2022/07/07 15:53:54;;;;;;;2.50;2.30;;;;;;;;;;10233743;28;20084;-69
2022/07/07 15:59:01;;;;;;;5.22;3.22;;;;;;;;;;10247742;28;20085;-69
2022/07/07 16:09:15;;;;;;;3.10;2.03;;;;;;;;;;10246985;28;20096;-68
2022/07/07 16:14:15;;;;;;;11.93;10.73;;;;;;;;;;10245141;28;20632;-69
2022/07/07 16:19:13;;;;;;;12.85;11.48;;;;;;;;;;10247205;28;20069;-68
2022/07/07 16:24:12;;;;;;;5.78;5.13;;;;;;;;;;10248259;28;20557;-68
2022/07/07 16:29:10;;;;;;;2.42;2.00;;;;;;;;;;10246713;28;20075;-68
2022/07/07 16:34:10;;;;;;;6.68;4.72;;;;;;;;;;10246833;28;20075;-68
2022/07/07 16:39:10;;;;;;;8.57;2.28;;;;;;;;;;10248721;28;20046;-68
2022/07/07 16:44:09;;;;;;;4.88;2.60;;;;;;;;;;10253530;28;20502;-65
2022/07/07 16:49:07;;;;;;;2.65;2.38;;;;;;;;;;10253384;28;20081;-66
2022/07/07 16:54:07;;;;;;;6.22;2.30;;;;;;;;;;10253485;28;20075;-66
2022/07/07 16:59:06;;;;;;;2.58;2.35;;;;;;;;;;10240649;28;20053;-65
2022/07/07 17:04:04;;;;;;;2.70;2.40;;;;;;;;;;10240523;28;20084;-66
2022/07/07 17:09:03;;;;;;;2.15;1.95;;;;;;;;;;10239382;28;20041;-65
2022/07/07 17:14:03;;;;;;;3.53;2.10;;;;;;;;;;10244904;28;20549;-66
2022/07/07 17:19:01;;;;;;;3.53;2.35;;;;;;;;;;10252988;28;20527;-65
2022/07/07 17:23:59;;;;;;;2.47;2.10;;;;;;;;;;10251789;28;20505;-65
2022/07/07 17:29:02;;;;;;;2.97;2.03;;;;;;;;;;10237486;28;20171;-65
2022/07/07 17:34:01;;;;;;;2.60;2.13;;;;;;;;;;10255888;28;20476;-66
2022/07/07 17:38:59;;;;;;;2.20;1.80;;;;;;;;;;10239080;28;20057;-65
2022/07/07 17:43:57;;;;;;;3.03;2.67;;;;;;;;;;10238862;28;20135;-65
2022/07/07 17:48:57;;;;;;;2.60;2.00;;;;;;;;;;10248201;28;20068;-65
2022/07/07 17:53:56;;;;;;;3.00;2.15;;;;;;;;;;10238181;28;20056;-65
2022/07/07 17:58:58;;;;;;;3.45;2.88;;;;;;;;;;10238139;28;20535;-65
2022/07/07 18:03:58;;;;;;;5.10;4.53;;;;;;;;;;10237728;28;20081;-66
2022/07/07 18:08:56;;;;;;;6.85;4.20;;;;;;;;;;10248489;28;20065;-65
2022/07/07 18:13:55;;;;;;;5.18;3.38;;;;;;;;;;10250422;28;20107;-65
2022/07/07 18:18:53;;;;;;;7.38;3.25;;;;;;;;;;10251534;28;20045;-65
2022/07/07 18:23:53;;;;;;;4.47;4.07;;;;;;;;;;10251057;28;20080;-65
2022/07/07 18:28:59;;;;;;;10.23;9.20;;;;;;;;;;10250437;28;20080;-66
2022/07/07 18:33:57;;;;;;;8.73;7.15;;;;;;;;;;10248983;28;20065;-66
2022/07/07 18:38:57;;;;;;;5.60;4.65;;;;;;;;;;10250342;28;20041;-66
2022/07/07 18:43:55;;;;;;;4.20;3.67;;;;;;;;;;10249180;28;20129;-66
2022/07/07 18:48:53;;;;;;;3.70;3.30;;;;;;;;;;10249542;28;20083;-66
2022/07/07 18:53:52;;;;;;;5.18;3.03;;;;;;;;;;10248397;28;20079;-66
2022/07/07 18:58:56;;;;;;;2.63;2.17;;;;;;;;;;10248461;28;20073;-65
2022/07/07 19:03:54;;;;;;;5.30;3.10;;;;;;;;;;10248487;28;20480;-65
2022/07/07 19:08:53;;;;;;;3.25;2.15;;;;;;;;;;10247622;28;20056;-65
2022/07/07 19:13:51;;;;;;;7.75;4.13;;;;;;;;;;10246326;28;20494;-65
2022/07/07 19:18:51;;;;;;;2.45;1.95;;;;;;;;;;10241740;28;20068;-66
2022/07/07 19:23:49;;;;;;;10.02;7.50;;;;;;;;;;10246395;28;20164;-66
2022/07/07 19:28:48;;;;;;;8.27;7.00;;;;;;;;;;10245835;28;20045;-64
2022/07/07 19:33:47;;;;;;;9.00;4.97;;;;;;;;;;10246888;28;20522;-65
2022/07/07 19:38:46;;;;;;;9.88;5.85;;;;;;;;;;10247182;28;20094;-65
2022/07/07 19:43:45;;;;;;;9.32;6.55;;;;;;;;;;10244915;28;20080;-64
2022/07/07 19:48:44;;;;;;;10.25;7.40;;;;;;;;;;10235934;28;20069;-65
2022/07/07 19:53:43;;;;;;;7.03;5.10;;;;;;;;;;10246791;28;20107;-65
2022/07/07 19:58:43;;;;;;;5.82;4.75;;;;;;;;;;10246723;28;20477;-65
2022/07/07 20:03:42;;;;;;;9.60;6.70;;;;;;;;;;10232582;28;20053;-66
2022/07/07 20:08:40;;;;;;;6.80;6.10;;;;;;;;;;10233909;28;20049;-66
2022/07/07 20:13:38;;;;;;;8.10;6.78;;;;;;;;;;10235180;28;20060;-65
2022/07/07 20:18:38;;;;;;;10.50;5.38;;;;;;;;;;10250063;28;20536;-65
2022/07/07 20:23:36;;;;;;;8.90;4.78;;;;;;;;;;10253136;28;20088;-65
2022/07/07 20:28:35;;;;;;;6.35;5.15;;;;;;;;;;10254613;28;20399;-65
2022/07/07 20:33:33;;;;;;;7.65;5.03;;;;;;;;;;10254545;28;20045;-66
2022/07/07 20:38:33;;;;;;;5.65;3.33;;;;;;;;;;10240980;28;20060;-65
2022/07/07 20:43:31;;;;;;;5.28;2.90;;;;;;;;;;10240800;28;20041;-65
2022/07/07 20:48:31;;;;;;;4.72;2.30;;;;;;;;;;10240132;28;20073;-65
2022/07/07 20:53:29;;;;;;;4.43;1.70;;;;;;;;;;10252869;28;20076;-65
2022/07/07 20:58:29;;;;;;;4.97;1.83;;;;;;;;;;10246605;28;20077;-66
2022/07/07 21:03:28;;;;;;;3.35;1.63;;;;;;;;;;10244346;28;20131;-65
2022/07/07 21:08:26;;;;;;;5.25;1.70;;;;;;;;;;10243613;28;20065;-66
2022/07/07 21:13:25;;;;;;;6.30;1.90;;;;;;;;;;10251154;28;20093;-65
2022/07/07 21:18:24;;;;;;;3.17;1.80;;;;;;;;;;10251796;28;20045;-66
2022/07/07 21:23:23;;;;;;;4.20;1.80;;;;;;;;;;10250190;28;20053;-65
2022/07/07 21:28:21;;;;;;;2.20;1.90;;;;;;;;;;10250048;28;20077;-65
2022/07/07 21:33:19;;;;;;;3.10;1.58;;;;;;;;;;10250246;28;20525;-65
2022/07/07 21:38:19;;;;;;;2.88;2.17;;;;;;;;;;10252156;28;20491;-65
2022/07/07 21:43:17;;;;;;;1.90;1.70;;;;;;;;;;10250295;28;20495;-67
2022/07/07 21:48:16;;;;;;;3.03;1.98;;;;;;;;;;10250697;28;20087;-65
2022/07/07 21:53:14;;;;;;;1.88;1.55;;;;;;;;;;10250478;28;20077;-65
2022/07/07 21:58:14;;;;;;;3.17;1.60;;;;;;;;;;10250099;28;20099;-64
2022/07/07 22:03:12;;;;;;;2.80;2.63;;;;;;;;;;10245034;28;20468;-65
2022/07/07 22:08:10;;;;;;;2.95;2.03;;;;;;;;;;10237295;28;20088;-65
2022/07/07 22:13:09;;;;;;;6.68;3.42;;;;;;;;;;10237138;28;20048;-65
2022/07/07 22:18:09;;;;;;;7.32;3.45;;;;;;;;;;10237053;28;20075;-66
2022/07/07 22:23:07;;;;;;;2.53;2.10;;;;;;;;;;10236953;28;20577;-65
2022/07/07 22:28:06;;;;;;;3.63;1.92;;;;;;;;;;10243005;28;20077;-65
2022/07/07 22:33:04;;;;;;;2.63;1.80;;;;;;;;;;10250327;28;20080;-65
2022/07/07 22:38:04;;;;;;;2.05;1.85;;;;;;;;;;10246358;28;20072;-65
2022/07/07 22:43:02;;;;;;;2.92;1.98;;;;;;;;;;10250046;28;20520;-65
2022/07/07 22:48:00;;;;;;;5.53;1.80;;;;;;;;;;10248825;28;20083;-65
2022/07/07 22:52:59;;;;;;;3.95;1.90;;;;;;;;;;10248582;28;20071;-65
2022/07/07 22:57:59;;;;;;;4.22;2.30;;;;;;;;;;10248432;28;20064;-66
2022/07/07 23:02:57;;;;;;;3.05;1.90;;;;;;;;;;10250501;28;20128;-65
2022/07/07 23:07:56;;;;;;;4.82;1.85;;;;;;;;;;10248817;28;20076;-65
2022/07/07 23:12:54;;;;;;;2.65;1.55;;;;;;;;;;10248083;28;20065;-66
2022/07/07 23:17:54;;;;;;;4.47;1.95;;;;;;;;;;10247701;28;20084;-66
2022/07/07 23:22:52;;;;;;;2.08;1.73;;;;;;;;;;10247552;28;20068;-65
2022/07/07 23:27:50;;;;;;;1.70;1.38;;;;;;;;;;10247386;28;20072;-65
2022/07/07 23:32:48;;;;;;;5.57;1.80;;;;;;;;;;10247521;28;20073;-66
2022/07/07 23:37:48;;;;;;;6.15;1.48;;;;;;;;;;10237200;28;20088;-65
2022/07/07 23:42:46;;;;;;;2.35;1.60;;;;;;;;;;10234362;28;20041;-64
2022/07/07 23:47:45;;;;;;;5.00;1.77;;;;;;;;;;10233390;28;20100;-65
2022/07/07 23:52:43;;;;;;;1.85;1.70;;;;;;;;;;10243548;28;20073;-65
2022/07/07 23:57:43;;;;;;;2.22;1.60;;;;;;;;;;10250313;28;20080;-63
